Time;durP1;ratioP1;P1;durP2;ratioP2;P2;SDS_P1;SDS_P2;PMS_P1;PMS_P2;Temp;Humidity;BMP_temperature;BMP_pressure;BME280_temperature;BME280_humidity;BME280_pressure;Samples;Min_cycle;Max_cycle;Signal;HPM_P1;HPM_P2
2024/01/18 00:00:47;;;;;;;1999.90;999.90;;;;;;;1.41;84.57;95967.59;5114483;28;20447;-65
2024/01/18 00:03:16;;;;;;;1999.90;999.90;;;;;;;1.29;84.39;95962.59;5114664;28;20067;-66
2024/01/18 00:05:43;;;;;;;1999.90;999.90;;;;;;;1.25;85.13;95956.59;5114402;28;20050;-68
2024/01/18 00:08:10;;;;;;;1999.90;999.90;;;;;;;1.19;86.20;95959.22;5114343;28;20114;-66
2024/01/18 00:10:37;;;;;;;1999.90;999.90;;;;;;;1.27;86.32;95952.28;5114306;28;20047;-65
2024/01/18 00:13:04;;;;;;;1999.90;999.90;;;;;;;1.28;85.40;95946.25;5114214;28;20047;-68
2024/01/18 00:15:32;;;;;;;1999.90;999.90;;;;;;;1.25;85.46;95948.88;5114276;28;20497;-68
2024/01/18 00:17:59;;;;;;;1999.90;999.90;;;;;;;1.21;85.49;95948.03;5114231;28;20136;-68
2024/01/18 00:20:27;;;;;;;1999.90;999.90;;;;;;;1.24;85.79;95948.00;5114335;28;20051;-65
2024/01/18 00:22:55;;;;;;;1999.90;999.90;;;;;;;1.27;85.75;95939.41;5114394;28;20105;-66
2024/01/18 00:25:22;;;;;;;1999.90;999.90;;;;;;;1.31;85.70;95942.78;5114079;28;20051;-65
2024/01/18 00:27:48;;;;;;;1999.90;999.90;;;;;;;1.25;85.55;95949.72;5113987;28;20413;-65
2024/01/18 00:30:18;;;;;;;1999.90;999.90;;;;;;;1.24;85.26;95939.44;5113962;28;20489;-62
2024/01/18 00:32:45;;;;;;;1999.90;999.90;;;;;;;1.28;85.73;95928.22;5113041;28;20390;-67
2024/01/18 00:35:12;;;;;;;1999.90;999.90;;;;;;;1.24;85.08;95931.72;5113859;28;20046;-65
2024/01/18 00:37:40;;;;;;;1999.90;999.90;;;;;;;1.17;84.99;95928.31;5113934;28;20047;-67
2024/01/18 00:40:09;;;;;;;1999.90;999.90;;;;;;;1.08;84.85;95926.69;5113911;28;20044;-66
2024/01/18 00:42:35;;;;;;;1999.90;999.90;;;;;;;1.03;84.76;95932.78;5114138;28;20047;-65
2024/01/18 00:45:03;;;;;;;1999.90;999.90;;;;;;;1.02;85.15;95931.09;5113647;28;20040;-68
2024/01/18 00:47:30;;;;;;;1999.90;999.90;;;;;;;0.96;85.45;95924.28;5113662;28;20055;-63
2024/01/18 00:49:57;;;;;;;1999.90;999.90;;;;;;;1.00;85.86;95931.94;5113737;28;20054;-64
2024/01/18 00:52:23;;;;;;;1999.90;999.90;;;;;;;1.05;85.14;95929.31;5113341;28;20146;-65
2024/01/18 00:54:51;;;;;;;1999.90;999.90;;;;;;;0.99;84.89;95919.94;5113538;28;20521;-66
2024/01/18 00:57:19;;;;;;;1999.90;999.90;;;;;;;0.92;85.23;95915.72;5113644;28;20044;-63
2024/01/18 00:59:46;;;;;;;1999.90;999.90;;;;;;;0.85;86.25;95908.91;5113475;28;20097;-66
2024/01/18 01:02:13;;;;;;;1999.90;999.90;;;;;;;0.92;86.26;95920.00;5113477;28;20043;-67
2024/01/18 01:04:40;;;;;;;1999.90;999.90;;;;;;;0.89;85.84;95913.16;5113657;28;20044;-64
2024/01/18 01:07:07;;;;;;;1999.90;999.90;;;;;;;0.88;85.52;95899.41;5113551;28;20050;-65
2024/01/18 01:09:33;;;;;;;1999.90;999.90;;;;;;;0.89;85.29;95889.97;5113450;28;20159;-66
2024/01/18 01:12:02;;;;;;;1999.90;999.90;;;;;;;0.90;85.36;95883.13;5113436;28;20083;-66
2024/01/18 01:14:29;;;;;;;1999.90;999.90;;;;;;;0.91;85.78;95875.38;5113294;28;20455;-65
2024/01/18 01:16:56;;;;;;;1999.90;999.90;;;;;;;0.80;86.63;95872.03;5113395;28;20237;-67
2024/01/18 01:19:23;;;;;;;1999.90;999.90;;;;;;;0.84;87.31;95872.00;5113737;28;20075;-66
2024/01/18 01:21:51;;;;;;;1999.90;999.90;;;;;;;0.82;87.51;95871.19;5113398;28;20043;-65
2024/01/18 01:24:17;;;;;;;1999.90;999.90;;;;;;;0.83;87.74;95864.28;5113491;28;20485;-65
2024/01/18 01:26:44;;;;;;;1999.90;999.90;;;;;;;0.86;87.17;95859.09;5113336;28;20075;-66
2024/01/18 01:29:14;;;;;;;1999.90;999.90;;;;;;;0.85;88.04;95858.25;5113178;28;20539;-69
2024/01/18 01:31:41;;;;;;;1999.90;999.90;;;;;;;0.91;88.03;95844.47;5113274;28;20051;-66
2024/01/18 01:34:08;;;;;;;1999.90;999.90;;;;;;;0.92;88.70;95841.00;5113162;28;20071;-67
2024/01/18 01:36:35;;;;;;;1999.90;999.90;;;;;;;0.97;88.60;95849.53;5113073;28;20104;-66
2024/01/18 01:39:03;;;;;;;1999.90;999.90;;;;;;;0.99;87.55;95850.38;5113162;28;20052;-69
2024/01/18 01:41:31;;;;;;;1999.90;999.90;;;;;;;1.03;86.79;95850.34;5113165;28;20043;-65
2024/01/18 01:43:58;;;;;;;1999.90;999.90;;;;;;;1.06;86.68;95843.44;5115348;28;20075;-63
2024/01/18 01:46:26;;;;;;;1999.90;999.90;;;;;;;1.06;86.22;95850.31;5117144;28;20036;-68
2024/01/18 01:48:58;;;;;;;1999.90;999.90;;;;;;;1.05;86.14;95840.88;5117046;28;20134;-64
2024/01/18 01:51:25;;;;;;;1999.90;999.90;;;;;;;1.04;86.45;95850.31;5116820;28;20130;-66
2024/01/18 01:53:54;;;;;;;1999.90;999.90;;;;;;;0.97;86.75;95846.94;5116833;28;20048;-66
2024/01/18 01:56:22;;;;;;;1999.90;999.90;;;;;;;0.97;87.35;95840.97;5116923;28;20127;-65
2024/01/18 01:58:50;;;;;;;1999.90;999.90;;;;;;;1.03;87.61;95838.31;5116979;28;20131;-68
2024/01/18 02:01:17;;;;;;;1999.90;999.90;;;;;;;1.04;88.18;95832.28;5116820;28;20496;-66
2024/01/18 02:03:46;;;;;;;1999.90;999.90;;;;;;;1.06;87.82;95838.28;5116803;28;20083;-63
2024/01/18 02:06:15;;;;;;;1999.90;999.90;;;;;;;1.04;87.13;95841.75;5116827;28;20054;-69
2024/01/18 02:08:42;;;;;;;1999.90;999.90;;;;;;;1.02;87.91;95844.31;5116693;28;20086;-68
2024/01/18 02:11:09;;;;;;;1999.90;999.90;;;;;;;1.06;88.41;95847.72;5116744;28;20055;-67
2024/01/18 02:13:38;;;;;;;1999.90;999.90;;;;;;;1.11;88.82;95840.78;5116511;28;20105;-68
2024/01/18 02:16:06;;;;;;;1999.90;999.90;;;;;;;1.16;88.98;95835.59;5116486;28;20052;-65
2024/01/18 02:18:35;;;;;;;1999.90;999.90;;;;;;;1.17;89.31;95825.25;5116529;28;20044;-65
2024/01/18 02:21:05;;;;;;;1999.90;999.90;;;;;;;1.20;90.07;95812.34;5116401;28;20044;-67
2024/01/18 02:23:33;;;;;;;1999.90;999.90;;;;;;;1.28;90.44;95813.97;5116434;28;20462;-68
2024/01/18 02:26:02;;;;;;;1999.90;999.90;;;;;;;1.33;90.74;95809.63;5116322;28;20130;-67
2024/01/18 02:28:29;;;;;;;1999.90;999.90;;;;;;;1.41;91.03;95812.94;5116358;28;20481;-66
2024/01/18 02:30:56;;;;;;;1999.90;999.90;;;;;;;1.48;91.11;95816.28;5116248;28;20051;-69
2024/01/18 02:33:23;;;;;;;1999.90;999.90;;;;;;;1.58;91.59;95809.28;5116066;28;20049;-67
2024/01/18 02:35:50;;;;;;;1999.90;999.90;;;;;;;1.66;92.62;95804.88;5116250;28;20078;-66
2024/01/18 02:38:17;;;;;;;1999.90;999.90;;;;;;;1.72;93.15;95801.34;5116270;28;20051;-69
2024/01/18 02:40:44;;;;;;;1999.90;999.90;;;;;;;1.77;93.54;95792.66;5116034;28;20580;-68
2024/01/18 02:43:14;;;;;;;1999.90;999.90;;;;;;;1.87;94.09;95792.53;5116034;28;20047;-66
2024/01/18 02:45:41;;;;;;;1999.90;999.90;;;;;;;1.91;94.64;95786.44;5115982;28;20088;-69
2024/01/18 02:48:07;;;;;;;1999.90;999.90;;;;;;;1.98;95.26;95795.78;5115932;28;20046;-66
2024/01/18 02:50:34;;;;;;;1999.90;999.90;;;;;;;2.07;95.43;95793.91;5115797;28;20043;-66
2024/01/18 02:53:01;;;;;;;1999.90;999.90;;;;;;;2.11;95.35;95799.00;5115714;28;20047;-68
2024/01/18 02:55:28;;;;;;;1999.90;999.90;;;;;;;2.13;95.15;95786.94;5114804;28;20104;-67
2024/01/18 02:57:56;;;;;;;1999.90;999.90;;;;;;;2.20;95.29;95787.69;5115854;28;20079;-66
2024/01/18 03:00:25;;;;;;;1999.90;999.90;;;;;;;2.30;95.96;95795.28;5115780;28;20130;-64
2024/01/18 03:02:52;;;;;;;1999.90;999.90;;;;;;;2.36;95.40;95795.19;5115683;28;20134;-68
2024/01/18 03:05:19;;;;;;;1999.90;999.90;;;;;;;2.39;94.83;95793.41;5115573;28;20150;-65
2024/01/18 03:07:46;;;;;;;1999.90;999.90;;;;;;;2.43;93.88;95794.19;5115629;28;20134;-65
2024/01/18 03:10:13;;;;;;;1999.90;999.90;;;;;;;2.46;93.34;95786.38;5115532;28;20082;-70
2024/01/18 03:12:40;;;;;;;1999.90;999.90;;;;;;;2.52;93.01;95785.41;5115472;28;20051;-68
2024/01/18 03:15:10;;;;;;;1999.90;999.90;;;;;;;2.57;93.08;95785.34;5115375;28;20051;-67
2024/01/18 03:17:39;;;;;;;1999.90;999.90;;;;;;;2.54;93.32;95781.09;5115483;28;20054;-67
2024/01/18 03:20:08;;;;;;;1999.90;999.90;;;;;;;2.55;93.54;95779.34;5115388;28;20135;-64
2024/01/18 03:22:35;;;;;;;1999.90;999.90;;;;;;;2.60;93.52;95780.13;5115208;28;20048;-69
2024/01/18 03:25:02;;;;;;;1999.90;999.90;;;;;;;2.62;93.49;95788.72;5115335;28;20051;-65
2024/01/18 03:27:29;;;;;;;1999.90;999.90;;;;;;;2.67;93.32;95783.47;5115487;28;20043;-70
2024/01/18 03:29:56;;;;;;;1999.90;999.90;;;;;;;2.66;93.60;95785.19;5115466;28;20047;-66
2024/01/18 03:32:23;;;;;;;1999.90;999.90;;;;;;;2.63;92.56;95791.25;5115221;28;20130;-67
2024/01/18 03:34:52;;;;;;;1999.90;999.90;;;;;;;2.62;91.92;95786.13;5114885;28;20093;-67
2024/01/18 03:37:19;;;;;;;1999.90;999.90;;;;;;;2.60;91.81;95783.56;5114923;28;20043;-63
2024/01/18 03:39:46;;;;;;;1999.90;999.90;;;;;;;2.59;91.47;95781.84;5114951;28;20047;-67
2024/01/18 03:42:13;;;;;;;1999.90;999.90;;;;;;;2.61;91.38;95781.81;5114901;28;20051;-69
2024/01/18 03:44:40;;;;;;;1999.90;999.90;;;;;;;2.64;91.12;95785.22;5114946;28;20055;-68
2024/01/18 03:47:07;;;;;;;1999.90;999.90;;;;;;;2.67;90.86;95784.28;5114766;28;20048;-70
2024/01/18 03:49:34;;;;;;;1999.90;999.90;;;;;;;2.69;90.95;95776.50;5114752;28;20078;-67
2024/01/18 03:52:03;;;;;;;1999.90;999.90;;;;;;;2.70;91.11;95784.25;5114612;28;20059;-67
2024/01/18 03:54:30;;;;;;;1999.90;999.90;;;;;;;2.71;91.00;95783.34;5114617;28;20043;-68
2024/01/18 03:56:57;;;;;;;1999.90;999.90;;;;;;;2.73;91.10;95781.59;5114643;28;20048;-64
2024/01/18 03:59:24;;;;;;;1999.90;999.90;;;;;;;2.74;91.51;95779.88;5114496;28;20131;-66
2024/01/18 04:01:52;;;;;;;1999.90;999.90;;;;;;;2.76;91.42;95783.25;5114467;28;20110;-66
2024/01/18 04:04:19;;;;;;;1999.90;999.90;;;;;;;2.78;92.29;95784.09;5114447;28;20071;-63
2024/01/18 04:06:46;;;;;;;1999.90;999.90;;;;;;;2.80;93.10;95777.16;5114344;28;20130;-68
2024/01/18 04:09:14;;;;;;;1999.90;999.90;;;;;;;2.82;93.46;95777.13;5114419;28;20104;-65
2024/01/18 04:11:42;;;;;;;1999.90;999.90;;;;;;;2.85;93.28;95779.66;5114423;28;20089;-66
2024/01/18 04:14:09;;;;;;;1999.90;999.90;;;;;;;2.89;93.77;95778.72;5114184;28;20083;-68
2024/01/18 04:16:37;;;;;;;1999.90;999.90;;;;;;;2.94;93.97;95782.06;5114489;28;20079;-69
2024/01/18 04:19:04;;;;;;;1999.90;999.90;;;;;;;3.01;94.34;95775.06;5114442;28;20047;-67
2024/01/18 04:21:33;;;;;;;1999.90;999.90;;;;;;;3.02;94.54;95775.03;5114141;28;20075;-66
2024/01/18 04:24:00;;;;;;;1999.90;999.90;;;;;;;3.05;94.55;95775.81;5114156;28;20105;-69
2024/01/18 04:26:31;;;;;;;1999.90;999.90;;;;;;;3.06;94.10;95774.94;5114050;28;20043;-67
2024/01/18 04:28:58;;;;;;;1999.90;999.90;;;;;;;3.09;93.92;95780.03;5114016;28;20047;-66
2024/01/18 04:31:25;;;;;;;1999.90;999.90;;;;;;;3.08;93.85;95773.19;5114001;28;20040;-70
2024/01/18 04:33:53;;;;;;;1999.90;999.90;;;;;;;3.08;93.87;95780.94;5113911;28;20490;-64
2024/01/18 04:36:20;;;;;;;1999.90;999.90;;;;;;;3.12;93.86;95772.22;5113951;28;20047;-69
2024/01/18 04:38:47;;;;;;;1999.90;999.90;;;;;;;3.13;94.05;95768.78;5113898;28;20489;-68
2024/01/18 04:41:15;;;;;;;1999.90;999.90;;;;;;;3.15;93.98;95770.44;5113888;28;20047;-64
2024/01/18 04:43:43;;;;;;;1999.90;999.90;;;;;;;3.18;93.94;95776.41;5113688;28;20092;-66
2024/01/18 04:46:10;;;;;;;1999.90;999.90;;;;;;;3.21;93.90;95772.03;5113921;28;20047;-67
2024/01/18 04:48:37;;;;;;;1999.90;999.90;;;;;;;3.20;93.78;95769.50;5113608;28;20555;-65
2024/01/18 04:51:05;;;;;;;1999.90;999.90;;;;;;;3.26;94.08;95770.22;5113748;28;20054;-67
2024/01/18 04:53:32;;;;;;;1999.90;999.90;;;;;;;3.28;93.95;95772.75;5113808;28;20046;-67
2024/01/18 04:55:59;;;;;;;1999.90;999.90;;;;;;;3.29;94.09;95771.88;5113660;28;20469;-67
2024/01/18 04:58:26;;;;;;;1999.90;999.90;;;;;;;3.33;94.96;95767.47;5113643;28;20131;-66
2024/01/18 05:00:55;;;;;;;1999.90;999.90;;;;;;;3.36;95.09;95776.03;5113611;28;20040;-64
2024/01/18 05:03:22;;;;;;;1999.90;999.90;;;;;;;3.37;94.81;95771.72;5113619;28;20399;-64
2024/01/18 05:05:49;;;;;;;1999.90;999.90;;;;;;;3.40;94.70;95772.50;5113590;28;20044;-65
2024/01/18 05:08:16;;;;;;;1999.90;999.90;;;;;;;3.40;94.61;95763.88;5113526;28;20082;-67
2024/01/18 05:10:43;;;;;;;1999.90;999.90;;;;;;;3.40;94.65;95771.63;5095174;28;20069;-68
2024/01/18 05:13:10;;;;;;;1999.90;999.90;;;;;;;3.40;94.80;95762.16;5113397;28;20496;-66
2024/01/18 05:15:38;;;;;;;1999.90;999.90;;;;;;;3.43;94.95;95765.56;5113378;28;20055;-66
2024/01/18 05:18:07;;;;;;;1999.90;999.90;;;;;;;3.46;95.19;95761.16;5114143;28;20493;-66
2024/01/18 05:20:34;;;;;;;1999.90;999.90;;;;;;;3.50;94.96;95759.38;5117962;28;20524;-69
2024/01/18 05:23:02;;;;;;;1999.90;999.90;;;;;;;3.53;95.31;95756.72;5117628;28;20105;-70
2024/01/18 05:25:29;;;;;;;1999.90;999.90;;;;;;;3.54;95.28;95750.66;5117540;28;20547;-68
2024/01/18 05:27:56;;;;;;;1999.90;999.90;;;;;;;3.53;94.69;95754.97;5117528;28;20047;-67
2024/01/18 05:30:24;;;;;;;1999.90;999.90;;;;;;;3.56;94.74;95756.66;5117741;28;20044;-68
2024/01/18 05:32:51;;;;;;;1999.90;999.90;;;;;;;3.60;95.33;95755.69;5117420;28;20138;-67
2024/01/18 05:35:20;;;;;;;1999.90;999.90;;;;;;;3.63;95.07;95754.75;5117568;28;20048;-69
2024/01/18 05:37:47;;;;;;;1999.90;999.90;;;;;;;3.64;94.90;95751.28;5117239;28;20051;-67
2024/01/18 05:40:15;;;;;;;1999.90;999.90;;;;;;;3.65;95.09;95738.31;5117200;28;20083;-65
2024/01/18 05:42:43;;;;;;;1999.90;999.90;;;;;;;3.65;95.46;95746.06;5117229;28;20048;-70
2024/01/18 05:45:10;;;;;;;1999.90;999.90;;;;;;;3.64;95.45;95741.78;5117346;28;20055;-65
2024/01/18 05:47:37;;;;;;;1999.90;999.90;;;;;;;3.67;95.55;95748.63;5117564;28;20043;-68
2024/01/18 05:50:05;;;;;;;1999.90;999.90;;;;;;;3.71;95.64;95759.75;5117081;28;20050;-66
2024/01/18 05:52:34;;;;;;;1999.90;999.90;;;;;;;3.70;96.38;95752.91;5116976;28;20084;-67
2024/01/18 05:55:01;;;;;;;1999.90;999.90;;;;;;;3.74;96.06;95754.50;5116935;28;20398;-64
2024/01/18 05:57:28;;;;;;;1999.90;999.90;;;;;;;3.75;95.49;95745.84;5117053;28;20096;-69
2024/01/18 05:59:55;;;;;;;1999.90;999.90;;;;;;;3.72;96.19;95748.53;5116928;28;20047;-67
2024/01/18 06:02:22;;;;;;;1999.90;999.90;;;;;;;3.67;96.57;95748.63;5116791;28;20559;-64
2024/01/18 06:04:49;;;;;;;1999.90;999.90;;;;;;;3.73;97.28;95737.31;5116937;28;20434;-66
2024/01/18 06:07:16;;;;;;;1999.90;999.90;;;;;;;3.74;97.34;95746.75;5116744;28;20079;-68
2024/01/18 06:09:44;;;;;;;1999.90;999.90;;;;;;;3.73;97.67;95742.47;5116720;28;20100;-66
2024/01/18 06:12:11;;;;;;;1999.90;999.90;;;;;;;3.80;98.22;95744.03;5116956;28;20581;-67
2024/01/18 06:14:39;;;;;;;1999.90;999.90;;;;;;;3.86;98.62;95738.72;5116390;28;20485;-67
2024/01/18 06:17:06;;;;;;;1999.90;999.90;;;;;;;3.94;98.53;95748.03;5116837;28;20067;-67
2024/01/18 06:19:33;;;;;;;1999.90;999.90;;;;;;;3.96;98.06;95749.69;5116785;28;20131;-64
2024/01/18 06:22:00;;;;;;;1999.90;999.90;;;;;;;3.94;97.68;95748.03;5116374;28;20048;-66
2024/01/18 06:24:28;;;;;;;1999.90;999.90;;;;;;;3.96;97.02;95749.69;5116459;28;20056;-69
2024/01/18 06:26:57;;;;;;;1999.90;999.90;;;;;;;3.97;96.85;95748.78;5116346;28;20478;-66
2024/01/18 06:29:29;;;;;;;1999.90;999.90;;;;;;;3.97;97.22;95753.13;5097178;28;20558;-69
2024/01/18 06:31:56;;;;;;;1999.90;999.90;;;;;;;3.97;97.15;95751.38;5116016;28;20074;-69
2024/01/18 06:34:23;;;;;;;1999.90;999.90;;;;;;;4.00;97.20;95753.88;5116071;28;20554;-64
2024/01/18 06:36:51;;;;;;;1999.90;999.90;;;;;;;4.03;97.16;95752.94;5116228;28;20096;-67
2024/01/18 06:39:18;;;;;;;1999.90;999.90;;;;;;;4.06;97.48;95752.88;5116143;28;20075;-67
2024/01/18 06:41:45;;;;;;;1999.90;999.90;;;;;;;4.10;97.25;95746.75;5116163;28;20047;-68
2024/01/18 06:44:13;;;;;;;1999.90;999.90;;;;;;;4.12;97.13;95747.56;5116276;28;20127;-68
2024/01/18 06:46:40;;;;;;;1999.90;999.90;;;;;;;4.12;96.88;95744.97;5115950;28;20131;-64
2024/01/18 06:49:08;;;;;;;1999.90;999.90;;;;;;;4.15;96.36;95755.25;5115955;28;20048;-65
2024/01/18 06:51:35;;;;;;;1999.90;999.90;;;;;;;4.14;96.15;95753.56;5115798;28;20468;-68
2024/01/18 06:54:02;;;;;;;1999.90;999.90;;;;;;;4.17;96.12;95757.78;5115974;28;20126;-66
2024/01/18 06:56:29;;;;;;;1999.90;999.90;;;;;;;4.15;95.43;95755.25;5115737;28;20058;-68
2024/01/18 06:58:56;;;;;;;1999.90;999.90;;;;;;;4.16;95.56;95759.53;5115692;28;20050;-68
2024/01/18 07:01:25;;;;;;;1999.90;999.90;;;;;;;4.14;95.57;95752.69;5115751;28;20096;-65
2024/01/18 07:03:52;;;;;;;1999.90;999.90;;;;;;;4.15;95.44;95734.53;5115607;28;20047;-64
2024/01/18 07:06:19;;;;;;;1999.90;999.90;;;;;;;4.19;95.57;95726.69;5115845;28;20101;-64
2024/01/18 07:08:46;;;;;;;1999.90;999.90;;;;;;;4.23;95.34;95730.91;5115662;28;20047;-65
2024/01/18 07:11:13;;;;;;;1999.90;999.90;;;;;;;4.25;95.21;95723.94;5115472;28;20485;-68
2024/01/18 07:13:41;;;;;;;1999.90;999.90;;;;;;;4.27;95.71;95724.75;5115495;28;20075;-67
2024/01/18 07:16:09;;;;;;;1999.90;999.90;;;;;;;4.28;95.39;95719.53;5115353;28;20055;-67
2024/01/18 07:18:38;;;;;;;1999.90;999.90;;;;;;;4.30;95.36;95711.72;5115452;28;20054;-68
2024/01/18 07:21:05;;;;;;;1999.90;999.90;;;;;;;4.35;95.49;95711.59;5115293;28;20050;-65
2024/01/18 07:23:32;;;;;;;1999.90;999.90;;;;;;;4.40;95.56;95717.53;5115361;28;20043;-68
2024/01/18 07:25:59;;;;;;;1999.90;999.90;;;;;;;4.41;95.50;95712.31;5115461;28;20047;-66
2024/01/18 07:28:26;;;;;;;1999.90;999.90;;;;;;;4.45;95.38;95707.88;5115279;28;20070;-69
2024/01/18 07:30:53;;;;;;;1999.90;999.90;;;;;;;4.45;95.22;95699.28;5115185;28;20039;-69
2024/01/18 07:33:20;;;;;;;1999.90;999.90;;;;;;;4.46;95.92;95688.88;5115347;28;20442;-64
2024/01/18 07:35:49;;;;;;;1999.90;999.90;;;;;;;4.50;96.61;95679.25;5114944;28;20052;-68
2024/01/18 07:38:16;;;;;;;1999.90;999.90;;;;;;;4.57;96.88;95685.97;5115026;28;20052;-68
2024/01/18 07:40:43;;;;;;;1999.90;999.90;;;;;;;4.64;97.41;95686.66;5114534;28;20070;-64
2024/01/18 07:43:10;;;;;;;1999.90;999.90;;;;;;;4.72;97.55;95697.66;5114932;28;20044;-64
2024/01/18 07:45:37;;;;;;;1999.90;999.90;;;;;;;4.78;97.96;95699.22;5114858;28;20089;-65
2024/01/18 07:48:04;;;;;;;1999.90;999.90;;;;;;;4.79;98.10;95691.38;5114718;28;20497;-67
2024/01/18 07:50:31;;;;;;;1999.90;999.90;;;;;;;4.84;98.80;95700.81;5114743;28;20478;-69
2024/01/18 07:53:00;;;;;;;1999.90;999.90;;;;;;;4.96;98.99;95700.44;5114484;28;20105;-64
2024/01/18 07:55:27;;;;;;;1999.90;999.90;;;;;;;5.08;98.90;95700.97;5114570;28;20048;-66
2024/01/18 07:57:54;;;;;;;1999.90;999.90;;;;;;;5.18;98.88;95699.81;5114575;28;20080;-67
2024/01/18 08:00:21;;;;;;;1999.90;999.90;;;;;;;5.27;97.71;95696.09;5114586;28;20765;-69
2024/01/18 08:02:48;;;;;;;1999.90;999.90;;;;;;;5.36;97.71;95702.72;5114508;28;20430;-67
2024/01/18 08:05:15;;;;;;;1999.90;999.90;;;;;;;5.47;97.74;95699.78;5114468;28;20134;-66
2024/01/18 08:07:42;;;;;;;1999.90;999.90;;;;;;;5.56;97.27;95702.97;5114414;28;20119;-64
2024/01/18 08:10:11;;;;;;;1999.90;999.90;;;;;;;5.59;96.83;95706.34;5114342;28;20040;-67
2024/01/18 08:12:38;;;;;;;1999.90;999.90;;;;;;;5.64;96.52;95705.31;5114489;28;20054;-65
2024/01/18 08:15:08;;;;;;;1999.90;999.90;;;;;;;5.72;95.78;95706.81;5114208;28;20386;-66
2024/01/18 08:17:35;;;;;;;1999.90;999.90;;;;;;;5.78;95.05;95704.03;5114308;28;20043;-66
2024/01/18 08:20:04;;;;;;;1999.90;999.90;;;;;;;5.87;94.58;95708.91;5114438;28;20039;-63
2024/01/18 08:22:31;;;;;;;1999.90;999.90;;;;;;;5.91;93.95;95699.28;5114133;28;20122;-68
2024/01/18 08:24:58;;;;;;;1999.90;999.90;;;;;;;5.97;93.62;95690.44;5114303;28;20079;-69
2024/01/18 08:27:27;;;;;;;1999.90;999.90;;;;;;;6.06;93.20;95691.00;5114005;28;20047;-67
2024/01/18 08:29:54;;;;;;;1999.90;999.90;;;;;;;6.14;93.09;95688.16;5114247;28;20131;-69
2024/01/18 08:32:21;;;;;;;1999.90;999.90;;;;;;;6.27;92.47;95688.59;5114204;28;20130;-68
2024/01/18 08:34:48;;;;;;;1999.90;999.90;;;;;;;6.40;92.56;95698.53;5113776;28;20446;-66
2024/01/18 08:37:15;;;;;;;1999.90;999.90;;;;;;;6.62;93.29;95688.25;5113873;28;20094;-69
2024/01/18 08:39:42;;;;;;;1999.90;999.90;;;;;;;7.01;93.29;95688.59;5113903;28;20043;-65
2024/01/18 08:42:09;;;;;;;1999.90;999.90;;;;;;;7.46;90.17;95686.88;5113837;28;20040;-64
2024/01/18 08:44:38;;;;;;;1999.90;999.90;;;;;;;8.04;87.22;95677.63;5114020;28;20044;-66
2024/01/18 08:47:06;;;;;;;1999.90;999.90;;;;;;;8.41;85.41;95669.16;5114093;28;20073;-65
2024/01/18 08:49:33;;;;;;;1999.90;999.90;;;;;;;8.81;83.21;95675.25;5113921;28;20348;-68
2024/01/18 08:52:00;;;;;;;1999.90;999.90;;;;;;;8.98;81.21;95668.44;5113547;28;20047;-67
2024/01/18 08:54:27;;;;;;;1999.90;999.90;;;;;;;9.06;80.22;95658.47;5113146;28;20409;-68
2024/01/18 08:56:53;;;;;;;1999.90;999.90;;;;;;;9.19;80.51;95652.72;5113601;28;20052;-66
2024/01/18 08:59:21;;;;;;;1999.90;999.90;;;;;;;9.24;79.51;95650.72;5113475;28;20097;-70
2024/01/18 09:01:49;;;;;;;1999.90;999.90;;;;;;;9.24;78.83;95650.72;5113592;28;20508;-65
2024/01/18 09:04:17;;;;;;;1999.90;999.90;;;;;;;9.30;77.51;95647.81;5113599;28;20112;-65
2024/01/18 09:06:44;;;;;;;1999.90;999.90;;;;;;;9.34;77.74;95641.53;5113441;28;20509;-66
2024/01/18 09:09:13;;;;;;;1999.90;999.90;;;;;;;9.28;77.96;95635.78;5113787;28;20043;-66
2024/01/18 09:11:41;;;;;;;1999.90;999.90;;;;;;;9.18;77.81;95638.81;5113561;28;20075;-63
2024/01/18 09:14:08;;;;;;;1999.90;999.90;;;;;;;9.08;77.62;95622.75;5113436;28;20043;-66
2024/01/18 09:16:35;;;;;;;1999.90;999.90;;;;;;;8.95;78.85;95614.66;5113432;28;20079;-68
2024/01/18 09:19:04;;;;;;;1999.90;999.90;;;;;;;8.91;78.49;95607.88;5113507;28;20155;-67
2024/01/18 09:21:31;;;;;;;1999.90;999.90;;;;;;;8.84;79.36;95599.50;5113757;28;20047;-67
2024/01/18 09:23:58;;;;;;;1999.90;999.90;;;;;;;8.82;79.65;95580.47;5113403;28;20039;-65
2024/01/18 09:26:25;;;;;;;1999.90;999.90;;;;;;;8.87;80.22;95592.44;5113183;28;20131;-65
2024/01/18 09:28:52;;;;;;;1999.90;999.90;;;;;;;8.92;80.70;95585.25;5113236;28;20050;-65
2024/01/18 09:31:21;;;;;;;1999.90;999.90;;;;;;;8.92;80.90;95564.38;5113236;28;20481;-64
2024/01/18 09:33:49;;;;;;;1999.90;999.90;;;;;;;8.93;80.79;95553.03;5113595;28;20163;-68
2024/01/18 09:36:18;;;;;;;1999.90;999.90;;;;;;;8.92;80.44;95544.38;5113151;28;20051;-64
2024/01/18 09:38:46;;;;;;;1999.90;999.90;;;;;;;8.96;80.35;95552.88;5113240;28;20140;-68
2024/01/18 09:41:18;;;;;;;1999.90;999.90;;;;;;;9.01;80.55;95537.03;5113186;28;20500;-64
2024/01/18 09:43:46;;;;;;;1999.90;999.90;;;;;;;9.05;80.32;95536.81;5113205;28;20058;-65
2024/01/18 09:46:13;;;;;;;1999.90;999.90;;;;;;;9.07;80.34;95540.19;5113248;28;20048;-63
2024/01/18 09:48:40;;;;;;;1999.90;999.90;;;;;;;9.01;80.97;95542.25;5113167;28;20477;-64
2024/01/18 09:51:09;;;;;;;1999.90;999.90;;;;;;;8.97;81.40;95539.78;5112815;28;20059;-67
2024/01/18 09:53:40;;;;;;;1999.90;999.90;;;;;;;8.92;81.41;95531.34;5113211;28;20083;-68
2024/01/18 09:56:19;;;;;;;1999.90;999.90;;;;;;;8.91;81.59;95526.19;5113040;28;20405;-68
2024/01/18 09:58:46;;;;;;;1999.90;999.90;;;;;;;8.96;80.83;95526.81;5113052;28;20455;-64
2024/01/18 10:01:20;;;;;;;1999.90;999.90;;;;;;;8.95;80.78;95512.06;5112983;28;20054;-64
2024/01/18 10:03:47;;;;;;;1999.90;999.90;;;;;;;8.97;80.69;95518.91;5113180;28;20047;-67
2024/01/18 10:06:15;;;;;;;1999.90;999.90;;;;;;;8.98;80.21;95527.59;5116782;28;20048;-66
2024/01/18 10:08:43;;;;;;;1999.90;999.90;;;;;;;9.00;79.51;95536.16;5116695;28;20383;-67
2024/01/18 10:11:10;;;;;;;1999.90;999.90;;;;;;;8.99;78.79;95537.09;5116738;28;20044;-66
2024/01/18 10:13:52;;;;;;;1999.90;999.90;;;;;;;8.96;78.20;95542.44;5116678;28;20043;-68
2024/01/18 10:16:29;;;;;;;1999.90;999.90;;;;;;;8.95;77.53;95549.44;5116680;28;20091;-67
2024/01/18 10:18:57;;;;;;;1999.90;999.90;;;;;;;8.93;77.62;95548.66;5116542;28;20047;-68
2024/01/18 10:21:25;;;;;;;1999.90;999.90;;;;;;;8.89;78.77;95547.13;5116593;28;20043;-68
2024/01/18 10:23:54;;;;;;;1999.90;999.90;;;;;;;8.86;79.70;95544.66;5116443;28;20097;-64
2024/01/18 10:26:21;;;;;;;1999.90;999.90;;;;;;;8.90;79.14;95545.34;5116543;28;20044;-63
2024/01/18 10:28:49;;;;;;;1999.90;999.90;;;;;;;8.91;78.43;95550.50;5116425;28;20511;-65
2024/01/18 10:31:16;;;;;;;1999.90;999.90;;;;;;;8.89;77.75;95552.34;5116266;28;20056;-67
2024/01/18 10:33:43;;;;;;;1999.90;999.90;;;;;;;8.91;77.91;95547.06;5116413;28;20446;-67
2024/01/18 10:36:10;;;;;;;1999.90;999.90;;;;;;;8.95;76.94;95540.78;5116190;28;20054;-69
2024/01/18 10:38:39;;;;;;;1999.90;999.90;;;;;;;8.95;76.97;95527.72;5116465;28;20127;-65
2024/01/18 10:41:08;;;;;;;1999.90;999.90;;;;;;;8.94;76.92;95528.66;5116414;28;20055;-64
2024/01/18 10:43:36;;;;;;;1999.90;999.90;;;;;;;8.89;76.90;95508.00;5116114;28;20043;-64
2024/01/18 10:46:04;;;;;;;1999.90;999.90;;;;;;;8.88;78.13;95490.66;5116095;28;20098;-64
2024/01/18 10:48:32;;;;;;;1999.90;999.90;;;;;;;8.98;80.20;95485.84;5116022;28;20047;-65
2024/01/18 10:51:00;;;;;;;1999.90;999.90;;;;;;;9.00;80.16;95488.38;5115955;28;20484;-69
2024/01/18 10:53:29;;;;;;;1999.90;999.90;;;;;;;9.05;80.59;95486.38;5115750;28;20086;-68
2024/01/18 10:55:57;;;;;;;1999.90;999.90;;;;;;;9.14;81.24;95477.25;5115826;28;20047;-65
2024/01/18 10:58:25;;;;;;;1999.90;999.90;;;;;;;9.22;81.82;95485.56;5116261;28;20147;-67
2024/01/18 11:00:54;;;;;;;1999.90;999.90;;;;;;;9.26;83.00;95488.84;5115832;28;20126;-67
2024/01/18 11:03:22;;;;;;;1999.90;999.90;;;;;;;9.28;81.56;95482.66;5115813;28;20092;-68